Terminal Aerodrome Forecast
Issued by NWS Wilmington, OH

Current Version | Previous Version | Graphics & Text | Print | Product List | Glossary On
Versions: 1 2 3 4 5 6 7 8 9 10 11 12 13 14 15 16 17 18 19 20 21 22 23 24 25 26 27 28 29 30 31 32 33 34
000
FTUS41 KILN 191000 AAB
TAFCVG
TAF AMD
KCVG 191017Z 1910/2012 VRB03KT 1/2SM FG VV003
      TEMPO 1911/1913 1/4SM FG VV001
     FM191300 VRB03KT 2SM BR BKN006
     FM191400 24005KT 4SM HZ SCT040
     FM191600 24008KT P6SM BKN040
     FM200300 23006KT P6SM VCTS BKN040CB=

USA.gov is the U.S. government's official web portal to all federal, state and local government web resources and services.